createdAt,value
2023-05-14T00:00:50.962Z,9.35
2023-05-14T00:01:50.765Z,9.35
2023-05-14T00:02:50.818Z,9.34
2023-05-14T00:03:50.863Z,9.3
2023-05-14T00:04:51.054Z,9.2
2023-05-14T00:05:50.803Z,8.77
2023-05-14T00:06:50.822Z,9
2023-05-14T00:07:50.843Z,9.06
2023-05-14T00:08:50.844Z,9.13
2023-05-14T00:09:50.860Z,9.09
2023-05-14T00:10:50.903Z,9.18
2023-05-14T00:11:50.893Z,8.87
2023-05-14T00:12:51.421Z,8.89
2023-05-14T00:13:51.112Z,8.84
2023-05-14T00:14:50.983Z,8.72
2023-05-14T00:15:51.076Z,8.59
2023-05-14T00:16:50.989Z,8.49
2023-05-14T00:17:51.042Z,8.44
2023-05-14T00:18:51.064Z,8.47
2023-05-14T00:19:51.026Z,8.63
2023-05-14T00:20:51.037Z,8.7
2023-05-14T00:21:51.027Z,8.64
2023-05-14T00:22:51.047Z,8.57
2023-05-14T00:23:51.062Z,8.53
2023-05-14T00:24:51.062Z,8.31
2023-05-14T00:25:51.238Z,8.3
2023-05-14T00:26:51.105Z,8.3
2023-05-14T00:27:51.097Z,8.26
2023-05-14T00:28:51.126Z,8.44
2023-05-14T00:29:51.127Z,8.41
2023-05-14T00:30:51.392Z,8.52
2023-05-14T00:31:51.438Z,8.68
2023-05-14T00:32:51.182Z,8.59
2023-05-14T00:33:51.182Z,8.45
2023-05-14T00:34:51.461Z,8.46
2023-05-14T00:35:51.238Z,8.51
2023-05-14T00:36:51.449Z,8.36
2023-05-14T00:37:51.269Z,8.43
2023-05-14T00:38:51.268Z,8.33
2023-05-14T00:39:51.285Z,8.34
2023-05-14T00:40:51.360Z,8.18
2023-05-14T00:41:51.294Z,7.99
2023-05-14T00:42:51.301Z,7.84
2023-05-14T00:43:51.342Z,7.8
2023-05-14T00:44:51.333Z,8.02
2023-05-14T00:45:52.568Z,8.21
2023-05-14T00:46:52.162Z,8.54
2023-05-14T00:47:52.203Z,8.41
2023-05-14T00:48:51.539Z,8.36
2023-05-14T00:49:51.451Z,8.31
2023-05-14T00:50:51.416Z,8.19
2023-05-14T00:51:52.187Z,8.27
2023-05-14T00:52:51.471Z,8.34
2023-05-14T00:53:51.958Z,8.36
2023-05-14T00:54:51.761Z,8.58
2023-05-14T00:55:52.057Z,8.76
2023-05-14T00:56:51.497Z,8.71
2023-05-14T00:57:53.230Z,8.56
2023-05-14T00:58:51.495Z,8.31
2023-05-14T00:59:52.442Z,8.37
2023-05-14T01:00:51.571Z,8.41
2023-05-14T01:01:51.585Z,8.35
2023-05-14T01:02:51.684Z,8.13
2023-05-14T01:03:51.705Z,8.02
2023-05-14T01:04:52.150Z,8.01
2023-05-14T01:08:02.999Z,8
2023-05-14T01:10:17.090Z,8.18
2023-05-14T01:11:17.284Z,8.35
2023-05-14T01:13:18.615Z,8.36
2023-05-14T01:14:23.875Z,8.44
2023-05-14T01:15:20.845Z,8.32
2023-05-14T01:16:18.616Z,8.39
2023-05-14T01:17:17.952Z,8.09
2023-05-14T01:18:18.608Z,7.5
2023-05-14T01:20:21.588Z,7.33
2023-05-14T01:22:25.423Z,7.89
2023-05-14T01:23:25.422Z,7.97
2023-05-14T01:24:25.449Z,8.19
2023-05-14T01:25:25.677Z,8.19
2023-05-14T01:26:25.460Z,8.22
2023-05-14T01:29:28.883Z,7.98
2023-05-14T01:31:33.281Z,7.52
2023-05-14T01:32:32.982Z,7.8
2023-05-14T01:33:33.718Z,7.79
2023-05-14T01:34:32.862Z,7.81
2023-05-14T01:35:32.724Z,7.77
2023-05-14T01:36:32.127Z,7.87
2023-05-14T01:37:32.586Z,7.9
2023-05-14T01:38:33.184Z,7.87
2023-05-14T01:39:32.725Z,7.75
2023-05-14T01:40:32.742Z,7.6
2023-05-14T01:41:32.696Z,7.54
2023-05-14T01:42:32.237Z,7.37
2023-05-14T01:43:32.352Z,7.7
2023-05-14T01:44:32.695Z,7.68
2023-05-14T01:45:35.029Z,7.58
2023-05-14T01:46:32.596Z,7.66
2023-05-14T01:47:32.074Z,7.68
2023-05-14T01:48:32.103Z,7.8
2023-05-14T01:49:32.087Z,7.79
2023-05-14T01:50:32.278Z,7.67
2023-05-14T01:51:32.454Z,7.64
2023-05-14T01:52:32.124Z,7.48
2023-05-14T01:53:32.115Z,7.39
2023-05-14T01:54:32.161Z,7.37
2023-05-14T01:55:32.165Z,7.16
2023-05-14T01:56:32.198Z,7.03
2023-05-14T01:57:32.462Z,6.97
2023-05-14T01:58:32.226Z,6.84
2023-05-14T01:59:32.259Z,6.79
2023-05-14T02:00:32.671Z,6.76
2023-05-14T02:01:32.559Z,6.79
2023-05-14T02:02:32.395Z,6.82
2023-05-14T02:03:32.332Z,6.77
2023-05-14T02:04:32.353Z,6.78
2023-05-14T02:05:32.335Z,6.77
2023-05-14T02:06:32.358Z,6.73
2023-05-14T02:07:32.884Z,6.68
2023-05-14T02:08:32.874Z,6.54
2023-05-14T02:09:32.870Z,6.54
2023-05-14T02:10:32.906Z,6.64
2023-05-14T02:11:32.938Z,6.81
2023-05-14T02:12:33.178Z,6.94
2023-05-14T02:13:32.955Z,7.02
2023-05-14T02:14:33.006Z,7
2023-05-14T02:15:32.972Z,6.95
2023-05-14T02:16:33.109Z,6.75
2023-05-14T02:17:33.120Z,6.68
2023-05-14T02:18:33.064Z,6.58
2023-05-14T02:19:33.070Z,6.57
2023-05-14T02:20:33.067Z,6.65
2023-05-14T02:21:33.106Z,6.76
2023-05-14T02:22:33.114Z,6.83
2023-05-14T02:23:40.907Z,6.81
2023-05-14T02:24:33.473Z,6.81
2023-05-14T02:25:33.440Z,6.93
2023-05-14T02:26:33.488Z,6.95
2023-05-14T02:27:33.533Z,7.1
2023-05-14T02:28:33.510Z,7.06
2023-05-14T02:29:33.509Z,7.17
2023-05-14T02:30:33.554Z,7.22
2023-05-14T02:31:33.608Z,7.21
2023-05-14T02:33:33.626Z,6.93
2023-05-14T02:34:34.011Z,6.81
2023-05-14T02:35:33.613Z,6.8
2023-05-14T02:36:33.632Z,6.96
2023-05-14T02:37:33.694Z,7.09
2023-05-14T02:38:33.698Z,7.18
2023-05-14T02:39:33.674Z,7.33
2023-05-14T02:40:33.698Z,7.41
2023-05-14T02:41:33.701Z,7.4
2023-05-14T02:42:34.316Z,7.38
2023-05-14T02:43:33.732Z,7.51
2023-05-14T02:44:33.780Z,7.55
2023-05-14T02:45:33.773Z,7.48
2023-05-14T02:46:33.829Z,7.39
2023-05-14T02:47:35.452Z,7.46
2023-05-14T02:48:33.993Z,7.48
2023-05-14T02:49:34.021Z,7.43
2023-05-14T02:50:34.028Z,7.44
2023-05-14T02:51:34.039Z,7.4
2023-05-14T02:52:34.102Z,7.4
2023-05-14T02:53:34.056Z,7.46
2023-05-14T02:54:34.257Z,7.35
2023-05-14T02:55:34.135Z,7.44
2023-05-14T02:56:34.134Z,7.44
2023-05-14T02:57:34.164Z,7.53
2023-05-14T02:58:34.153Z,7.47
2023-05-14T02:59:34.175Z,7.61
2023-05-14T03:00:34.618Z,7.65
2023-05-14T03:01:34.195Z,7.64
2023-05-14T03:02:34.569Z,7.69
2023-05-14T03:03:34.435Z,7.6
2023-05-14T03:04:34.227Z,7.68
2023-05-14T03:05:34.521Z,7.78
2023-05-14T03:06:34.268Z,7.82
2023-05-14T03:07:34.311Z,7.94
2023-05-14T03:08:34.341Z,8.06
2023-05-14T03:09:36.013Z,8.1
2023-05-14T03:10:34.386Z,8.22
2023-05-14T03:11:34.568Z,8.26
2023-05-14T03:12:34.390Z,8.41
2023-05-14T03:13:34.414Z,8.45
2023-05-14T03:14:34.463Z,8.54
2023-05-14T03:15:34.469Z,8.6
2023-05-14T03:16:34.478Z,8.57
2023-05-14T03:17:34.495Z,8.68
2023-05-14T03:18:34.537Z,8.75
2023-05-14T03:19:34.506Z,8.73
2023-05-14T03:20:34.517Z,8.66
2023-05-14T03:21:34.536Z,8.38
2023-05-14T03:22:34.583Z,8.63
2023-05-14T03:23:34.794Z,8.54
2023-05-14T03:24:34.754Z,8.86
2023-05-14T03:25:34.610Z,8.75
2023-05-14T03:26:34.617Z,8.61
2023-05-14T03:27:34.634Z,8.58
2023-05-14T03:28:34.687Z,8.67
2023-05-14T03:29:34.655Z,8.64
2023-05-14T03:30:34.755Z,8.63
2023-05-14T03:31:34.712Z,8.72
2023-05-14T03:32:34.982Z,8.51
2023-05-14T03:33:35.198Z,8.53
2023-05-14T03:34:34.924Z,8.74
2023-05-14T03:35:34.768Z,8.61
2023-05-14T03:36:34.817Z,8.89
2023-05-14T03:37:34.830Z,8.75
2023-05-14T03:38:34.791Z,8.79
2023-05-14T03:39:34.841Z,8.8
2023-05-14T03:40:34.884Z,8.77
2023-05-14T03:41:35.093Z,8.61
2023-05-14T03:42:34.876Z,8.81
2023-05-14T03:43:34.954Z,8.81
2023-05-14T03:44:34.929Z,8.74
2023-05-14T03:45:34.953Z,8.83
2023-05-14T03:46:34.944Z,9.04
2023-05-14T03:47:34.957Z,9.02
2023-05-14T03:48:35.048Z,9.11
2023-05-14T03:49:35.012Z,9.09
2023-05-14T03:50:35.023Z,9.03
2023-05-14T03:51:35.267Z,9.14
2023-05-14T03:52:35.272Z,9.11
2023-05-14T03:53:35.059Z,9.16
2023-05-14T03:54:35.115Z,9.2
2023-05-14T03:55:35.094Z,9.2
2023-05-14T03:56:35.171Z,9.28
2023-05-14T03:57:35.144Z,9.34
2023-05-14T03:58:35.140Z,9.37
2023-05-14T03:59:35.167Z,9.27
2023-05-14T04:00:35.459Z,9.27
2023-05-14T04:01:35.198Z,9.3
2023-05-14T04:02:35.293Z,9.32
2023-05-14T04:03:35.356Z,9.37
2023-05-14T04:04:35.396Z,9.33
2023-05-14T04:05:35.841Z,9.19
2023-05-14T04:06:35.267Z,9.18
2023-05-14T04:07:35.287Z,9.18
2023-05-14T04:08:35.322Z,9.22
2023-05-14T04:09:35.348Z,9.25
2023-05-14T04:10:35.360Z,9.29
2023-05-14T04:11:35.423Z,9.32
2023-05-14T04:12:35.378Z,9.4
2023-05-14T04:13:35.433Z,9.43
2023-05-14T04:14:35.432Z,9.53
2023-05-14T04:15:35.454Z,9.47
2023-05-14T04:16:35.524Z,9.46
2023-05-14T04:17:35.494Z,9.45
2023-05-14T04:18:35.598Z,9.44
2023-05-14T04:19:35.500Z,9.5
2023-05-14T04:20:35.512Z,9.47
2023-05-14T04:21:35.539Z,9.57
2023-05-14T04:22:35.549Z,9.68
2023-05-14T04:23:35.556Z,9.71
2023-05-14T04:24:35.593Z,9.58
2023-05-14T04:25:35.617Z,9.71
2023-05-14T04:26:35.598Z,9.81
2023-05-14T04:27:35.579Z,9.88
2023-05-14T04:28:35.802Z,9.9
2023-05-14T04:29:35.705Z,9.91
2023-05-14T04:30:35.717Z,9.85
2023-05-14T04:31:36.063Z,9.94
2023-05-14T04:32:35.759Z,9.98
2023-05-14T04:33:35.718Z,10.08
2023-05-14T04:34:35.743Z,10.19
2023-05-14T04:35:35.861Z,10.22
2023-05-14T04:36:35.797Z,10.18
2023-05-14T04:37:36.103Z,10.07
2023-05-14T04:38:35.815Z,10.15
2023-05-14T04:39:36.369Z,10.28
2023-05-14T04:40:35.862Z,10.26
2023-05-14T04:41:35.891Z,10.27
2023-05-14T04:42:35.904Z,10.24
2023-05-14T04:43:35.893Z,10.34
2023-05-14T04:44:36.357Z,10.34
2023-05-14T04:45:36.254Z,10.42
2023-05-14T04:46:36.005Z,10.44
2023-05-14T04:47:35.999Z,10.5
2023-05-14T04:48:35.949Z,10.58
2023-05-14T04:49:36.000Z,10.64
2023-05-14T04:50:36.019Z,10.6
2023-05-14T04:51:36.011Z,10.65
2023-05-14T04:52:36.014Z,10.76
2023-05-14T04:53:36.026Z,10.84
2023-05-14T04:54:36.138Z,10.86
2023-05-14T04:55:36.174Z,10.78
2023-05-14T04:56:36.084Z,10.87
2023-05-14T04:57:36.101Z,10.93
2023-05-14T04:58:36.141Z,11.02
2023-05-14T04:59:36.143Z,11.03
2023-05-14T05:00:36.412Z,11.12
2023-05-14T05:01:37.546Z,11.29
2023-05-14T05:02:36.210Z,11.31
2023-05-14T05:03:36.237Z,11.49
2023-05-14T05:04:36.460Z,11.54
2023-05-14T05:05:36.245Z,11.53
2023-05-14T05:06:36.272Z,11.53
2023-05-14T05:07:36.285Z,11.6
2023-05-14T05:08:36.401Z,11.75
2023-05-14T05:09:36.336Z,11.8
2023-05-14T05:10:36.359Z,11.89
2023-05-14T05:11:36.398Z,12.01
2023-05-14T05:12:36.361Z,12.05
2023-05-14T05:13:36.402Z,12.06
2023-05-14T05:14:36.413Z,12.11
2023-05-14T05:15:36.468Z,12.19
2023-05-14T05:16:36.575Z,12.16
2023-05-14T05:17:36.498Z,12.23
2023-05-14T05:18:36.485Z,12.6
2023-05-14T05:19:43.710Z,12.41
2023-05-14T05:20:40.617Z,12.45
2023-05-14T05:21:40.684Z,12.5
2023-05-14T05:22:40.654Z,12.54
2023-05-14T05:23:40.636Z,12.67
2023-05-14T05:24:40.689Z,12.77
2023-05-14T05:25:40.941Z,12.77
2023-05-14T05:26:40.722Z,12.77
2023-05-14T05:27:40.698Z,12.95
2023-05-14T05:28:40.747Z,13.01
2023-05-14T05:29:40.749Z,12.95
2023-05-14T05:30:40.813Z,13.07
2023-05-14T05:31:41.292Z,13.14
2023-05-14T05:32:41.031Z,13.15
2023-05-14T05:33:40.841Z,13.19
2023-05-14T05:34:41.071Z,13.22
2023-05-14T05:35:40.865Z,13.27
2023-05-14T05:36:40.902Z,13.4
2023-05-14T05:37:41.213Z,13.51
2023-05-14T05:38:40.947Z,13.45
2023-05-14T05:39:40.908Z,13.56
2023-05-14T05:40:41.139Z,13.68
2023-05-14T05:41:40.967Z,13.68
2023-05-14T05:42:41.425Z,13.9
2023-05-14T05:43:41.326Z,13.9
2023-05-14T05:44:40.995Z,13.9
2023-05-14T05:45:40.990Z,13.97
2023-05-14T05:46:41.159Z,13.92
2023-05-14T05:47:41.112Z,13.94
2023-05-14T05:48:41.067Z,14.15
2023-05-14T05:49:41.073Z,14.24
2023-05-14T05:50:41.068Z,14.34
2023-05-14T05:51:41.101Z,14.37
2023-05-14T05:52:41.402Z,14.39
2023-05-14T05:53:41.136Z,14.37
2023-05-14T05:54:41.138Z,14.38
2023-05-14T05:55:41.147Z,14.42
2023-05-14T05:56:41.429Z,14.47
2023-05-14T05:57:41.204Z,14.57
2023-05-14T05:58:41.207Z,14.62
2023-05-14T05:59:41.279Z,14.71
2023-05-14T06:00:41.634Z,14.75
2023-05-14T06:01:41.301Z,14.71
2023-05-14T06:02:41.598Z,14.84
2023-05-14T06:03:41.285Z,14.74
2023-05-14T06:04:41.309Z,14.82
2023-05-14T06:05:41.407Z,14.88
2023-05-14T06:06:41.388Z,14.88
2023-05-14T06:07:41.393Z,14.95
2023-05-14T06:08:41.389Z,14.86
2023-05-14T06:09:41.391Z,14.95
2023-05-14T06:10:41.399Z,15.09
2023-05-14T06:11:41.474Z,15.14
2023-05-14T06:12:41.480Z,15.11
2023-05-14T06:13:41.428Z,15.2
2023-05-14T06:14:41.487Z,15.24
2023-05-14T06:15:41.503Z,15.36
2023-05-14T06:16:41.615Z,15.44
2023-05-14T06:17:41.605Z,15.4
2023-05-14T06:18:41.585Z,15.58
2023-05-14T06:19:41.533Z,15.7
2023-05-14T06:20:41.564Z,15.64
2023-05-14T06:21:41.898Z,15.73
2023-05-14T06:22:41.632Z,15.72
2023-05-14T06:23:41.610Z,15.79
2023-05-14T06:24:41.631Z,15.73
2023-05-14T06:25:41.659Z,15.76
2023-05-14T06:26:41.686Z,15.63
2023-05-14T06:27:42.279Z,15.82
2023-05-14T06:28:41.692Z,15.92
2023-05-14T06:29:41.710Z,15.96
2023-05-14T06:30:41.727Z,15.98
2023-05-14T06:31:41.781Z,15.92
2023-05-14T06:32:41.831Z,16.14
2023-05-14T06:33:41.803Z,16
2023-05-14T06:34:41.982Z,16.13
2023-05-14T06:35:41.843Z,16.23
2023-05-14T06:36:41.813Z,16.13
2023-05-14T06:37:41.847Z,16.34
2023-05-14T06:38:42.057Z,16.34
2023-05-14T06:39:41.880Z,16.46
2023-05-14T06:40:41.900Z,16.21
2023-05-14T06:41:41.962Z,16.15
2023-05-14T06:42:42.136Z,16.39
2023-05-14T06:43:41.955Z,16.56
2023-05-14T06:44:42.070Z,16.61
2023-05-14T06:45:42.003Z,16.7
2023-05-14T06:46:42.014Z,16.8
2023-05-14T06:47:42.038Z,16.92
2023-05-14T06:48:42.079Z,16.97
2023-05-14T06:49:42.007Z,16.98
2023-05-14T06:50:42.031Z,16.78
2023-05-14T06:51:42.094Z,16.9
2023-05-14T06:52:42.104Z,16.97
2023-05-14T06:53:42.102Z,16.83
2023-05-14T06:54:42.106Z,16.85
2023-05-14T06:55:43.151Z,16.94
2023-05-14T06:56:42.980Z,16.95
2023-05-14T06:57:42.975Z,16.81
2023-05-14T06:58:43.061Z,16.65
2023-05-14T06:59:43.020Z,16.98
2023-05-14T07:00:43.323Z,17.15
2023-05-14T07:01:43.293Z,17.25
2023-05-14T07:02:43.082Z,17.25
2023-05-14T07:03:43.135Z,17.31
2023-05-14T07:04:43.114Z,17.48
2023-05-14T07:05:43.137Z,17.62
2023-05-14T07:06:43.143Z,17.87
2023-05-14T07:07:43.155Z,17.46
2023-05-14T07:08:43.581Z,17.32
2023-05-14T07:09:43.174Z,17.27
2023-05-14T07:10:43.183Z,17.42
2023-05-14T07:11:43.223Z,17.74
2023-05-14T07:12:43.376Z,17.83
2023-05-14T07:13:43.246Z,17.66
2023-05-14T07:14:43.283Z,17.58
2023-05-14T07:15:43.249Z,17.53
2023-05-14T07:16:43.344Z,17.75
2023-05-14T07:17:43.333Z,17.75
2023-05-14T07:18:44.209Z,17.93
2023-05-14T07:19:43.355Z,18.1
2023-05-14T07:20:43.391Z,17.99
2023-05-14T07:21:43.382Z,17.97
2023-05-14T07:22:43.388Z,18.13
2023-05-14T07:23:43.456Z,18.2
2023-05-14T07:24:43.469Z,18.11
2023-05-14T07:25:43.478Z,17.81
2023-05-14T07:26:43.673Z,17.52
2023-05-14T07:27:43.478Z,17.9
2023-05-14T07:28:43.493Z,18.11
2023-05-14T07:29:43.707Z,17.77
2023-05-14T07:30:43.529Z,17.96
2023-05-14T07:31:43.764Z,18.01
2023-05-14T07:32:43.639Z,17.93
2023-05-14T07:33:43.575Z,18.18
2023-05-14T07:34:43.596Z,18.08
2023-05-14T07:35:43.605Z,18.23
2023-05-14T07:36:43.654Z,18.51
2023-05-14T07:37:43.866Z,18.08
2023-05-14T07:38:43.877Z,17.89
2023-05-14T07:39:43.812Z,18.07
2023-05-14T07:40:43.709Z,18.52
2023-05-14T07:41:43.887Z,18.55
2023-05-14T07:42:43.707Z,18.39
2023-05-14T07:43:43.900Z,18.64
2023-05-14T07:44:43.772Z,18.79
2023-05-14T07:45:43.771Z,18.51
2023-05-14T07:46:43.785Z,18.56
2023-05-14T07:47:43.848Z,18.69
2023-05-14T07:48:43.849Z,18.86
2023-05-14T07:49:43.842Z,18.87
2023-05-14T07:50:43.845Z,18.86
2023-05-14T07:51:43.887Z,18.86
2023-05-14T07:52:44.306Z,18.64
2023-05-14T07:53:43.915Z,18.45
2023-05-14T07:54:43.956Z,18.22
2023-05-14T07:55:44.714Z,18.47
2023-05-14T07:56:43.945Z,18.6
2023-05-14T07:57:44.000Z,18.53
2023-05-14T07:58:43.963Z,18.7
2023-05-14T07:59:44.006Z,18.73
2023-05-14T08:00:44.359Z,18.91
2023-05-14T08:01:44.067Z,18.78
2023-05-14T08:02:44.416Z,18.75
2023-05-14T08:03:44.214Z,18.89
2023-05-14T08:04:44.451Z,18.92
2023-05-14T08:05:44.105Z,18.96
2023-05-14T08:06:44.135Z,18.89
2023-05-14T08:07:44.782Z,18.76
2023-05-14T08:08:44.148Z,18.76
2023-05-14T08:09:44.184Z,19
2023-05-14T08:10:44.527Z,18.69
2023-05-14T08:11:44.181Z,18.65
2023-05-14T08:12:44.219Z,18.79
2023-05-14T08:13:44.252Z,19.01
2023-05-14T08:14:44.238Z,18.66
2023-05-14T08:15:44.295Z,18.91
2023-05-14T08:16:44.320Z,19.39
2023-05-14T08:17:44.351Z,19.42
2023-05-14T08:18:44.368Z,19.25
2023-05-14T08:19:44.346Z,19.14
2023-05-14T08:20:44.342Z,19.29
2023-05-14T08:21:44.337Z,19.39
2023-05-14T08:22:44.417Z,19.47
2023-05-14T08:23:44.402Z,19.22
2023-05-14T08:24:44.407Z,19.19
2023-05-14T08:25:44.461Z,18.93
2023-05-14T08:26:44.701Z,18.75
2023-05-14T08:27:44.451Z,19.38
2023-05-14T08:28:44.454Z,19.19
2023-05-14T08:29:44.496Z,19.07
2023-05-14T08:30:44.554Z,19.18
2023-05-14T08:31:44.509Z,18.86
2023-05-14T08:32:44.562Z,19.03
2023-05-14T08:33:44.554Z,19.27
2023-05-14T08:34:44.560Z,19.44
2023-05-14T08:35:44.585Z,19.8
2023-05-14T08:36:44.662Z,19.52
2023-05-14T08:37:44.978Z,19.53
2023-05-14T08:38:44.649Z,19.92
2023-05-14T08:39:44.655Z,19.66
2023-05-14T08:41:46.907Z,19.24
2023-05-14T08:42:47.165Z,18.94
2023-05-14T08:44:52.971Z,19.18
2023-05-14T08:45:51.993Z,19.59
2023-05-14T08:46:50.092Z,19.66
2023-05-14T08:47:50.361Z,19.72
2023-05-14T08:49:54.779Z,19.93
2023-05-14T08:50:52.632Z,20.04
2023-05-14T08:51:52.684Z,20.22
2023-05-14T08:52:52.914Z,19.75
2023-05-14T08:53:52.524Z,19.64
2023-05-14T08:54:52.928Z,19.89
2023-05-14T08:55:53.519Z,19.43
2023-05-14T08:56:53.104Z,19.58
2023-05-14T08:57:53.461Z,19.47
2023-05-14T08:58:53.089Z,19.67
2023-05-14T08:59:53.534Z,19.53
2023-05-14T09:00:53.639Z,19.25
2023-05-14T09:01:54.482Z,19.18
2023-05-14T09:02:53.265Z,19.13
2023-05-14T09:03:53.897Z,19.26
2023-05-14T09:04:57.233Z,19.55
2023-05-14T09:05:53.770Z,19.51
2023-05-14T09:06:54.258Z,19.54
2023-05-14T09:07:53.532Z,19.67
2023-05-14T09:08:54.024Z,19.74
2023-05-14T09:09:54.068Z,19.56
2023-05-14T09:10:53.549Z,19.48
2023-05-14T09:11:54.031Z,19.55
2023-05-14T09:12:53.588Z,20
2023-05-14T09:13:53.577Z,20.04
2023-05-14T09:14:53.809Z,19.75
2023-05-14T09:15:54.496Z,19.7
2023-05-14T09:16:54.074Z,20.12
2023-05-14T09:17:53.754Z,20.15
2023-05-14T09:18:54.691Z,19.98
2023-05-14T09:19:54.178Z,20.07
2023-05-14T09:20:53.718Z,19.73
2023-05-14T09:21:56.636Z,19.71
2023-05-14T09:22:54.011Z,19.74
2023-05-14T09:23:54.094Z,19.91
2023-05-14T09:25:55.100Z,19.75
2023-05-14T09:26:58.741Z,20.36
2023-05-14T09:27:58.554Z,20.25
2023-05-14T09:28:55.589Z,20.51
2023-05-14T09:29:55.210Z,20.48
2023-05-14T09:30:55.178Z,20.53
2023-05-14T09:31:56.128Z,20.29
2023-05-14T09:32:55.253Z,20.14
2023-05-14T09:33:55.258Z,19.98
2023-05-14T09:34:56.281Z,19.97
2023-05-14T09:35:58.800Z,20.08
2023-05-14T09:36:59.535Z,20.36
2023-05-14T09:37:55.934Z,19.89
2023-05-14T09:38:58.825Z,19.84
2023-05-14T09:39:55.773Z,20.31
2023-05-14T09:40:55.921Z,20.39
2023-05-14T09:41:56.311Z,20.14
2023-05-14T09:42:55.806Z,20.04
2023-05-14T09:43:55.846Z,19.99
2023-05-14T09:44:56.042Z,20.38
2023-05-14T09:45:55.854Z,21.03
2023-05-14T09:46:55.968Z,21.17
2023-05-14T09:47:56.163Z,21.39
2023-05-14T09:48:55.921Z,21.52
2023-05-14T09:49:55.915Z,21.01
2023-05-14T09:50:55.954Z,20.81
2023-05-14T09:51:55.902Z,20.61
2023-05-14T09:52:56.014Z,20.34
2023-05-14T09:53:56.007Z,20.54
2023-05-14T09:54:56.184Z,20.37
2023-05-14T09:55:56.038Z,20.54
2023-05-14T09:56:56.052Z,20.54
2023-05-14T09:57:56.017Z,20.52
2023-05-14T09:58:56.490Z,20.53
2023-05-14T09:59:56.067Z,20.58
2023-05-14T10:00:57.362Z,20.49
2023-05-14T10:01:57.149Z,20.52
2023-05-14T10:02:57.711Z,20.57
2023-05-14T10:03:56.569Z,20.75
2023-05-14T10:04:57.597Z,21.18
2023-05-14T10:05:58.398Z,20.74
2023-05-14T10:06:56.527Z,20.46
2023-05-14T10:07:57.176Z,20.33
2023-05-14T10:08:58.300Z,20.53
2023-05-14T10:10:01.381Z,20.92
2023-05-14T10:10:58.818Z,20.95
2023-05-14T10:11:59.278Z,20.97
2023-05-14T10:12:59.621Z,20.96
2023-05-14T10:15:01.089Z,21.07
2023-05-14T10:16:08.084Z,20.84
2023-05-14T10:17:00.534Z,20.82
2023-05-14T10:18:03.385Z,20.94
2023-05-14T10:20:00.532Z,20.75
2023-05-14T10:21:04.222Z,21.6
2023-05-14T10:23:04.099Z,22.06
2023-05-14T10:24:05.164Z,21.89
2023-05-14T10:25:04.877Z,21.98
2023-05-14T10:26:04.335Z,21.77
2023-05-14T10:27:04.421Z,21.71
2023-05-14T10:28:05.311Z,21.44
2023-05-14T10:29:03.976Z,21.79
2023-05-14T10:30:05.741Z,22.04
2023-05-14T10:31:04.073Z,21.84
2023-05-14T10:32:05.105Z,21.54
2023-05-14T10:36:10.778Z,21.34
2023-05-14T10:37:17.424Z,21.08
2023-05-14T10:38:14.724Z,21.17
2023-05-14T10:39:13.655Z,21.38
2023-05-14T10:40:13.881Z,21.29
2023-05-14T10:41:14.660Z,21.41
2023-05-14T10:42:21.453Z,22.01
2023-05-14T10:43:17.922Z,22.54
2023-05-14T10:44:17.959Z,21.9
2023-05-14T10:45:17.727Z,21.57
2023-05-14T10:46:18.075Z,21.6
2023-05-14T10:47:18.222Z,21.69
2023-05-14T10:48:18.493Z,21.56
2023-05-14T10:49:23.271Z,21.66
2023-05-14T10:50:19.507Z,21.72
2023-05-14T10:51:19.723Z,21.81
2023-05-14T10:52:19.412Z,21.97
2023-05-14T10:53:19.296Z,22.27
2023-05-14T10:54:19.232Z,21.94
2023-05-14T10:55:19.293Z,21.78
2023-05-14T10:56:19.315Z,21.43
2023-05-14T10:57:20.042Z,21.64
2023-05-14T10:58:19.364Z,21.28
2023-05-14T10:59:19.289Z,21.83
2023-05-14T11:00:19.473Z,21.54
2023-05-14T11:01:23.731Z,21.89
2023-05-14T11:03:21.642Z,21.64
2023-05-14T11:04:24.399Z,21.49
2023-05-14T11:05:21.626Z,21.62
2023-05-14T11:06:22.000Z,21.84
2023-05-14T11:08:27.462Z,21.69
2023-05-14T11:09:25.633Z,21.82
2023-05-14T11:10:25.301Z,21.6
2023-05-14T11:11:25.530Z,21
2023-05-14T11:12:26.248Z,20.8
2023-05-14T11:13:26.348Z,20.77
2023-05-14T11:14:25.101Z,20.74
2023-05-14T11:15:27.412Z,21.01
2023-05-14T11:16:27.728Z,21.01
2023-05-14T11:17:25.890Z,21.02
2023-05-14T11:19:26.195Z,21.38
2023-05-14T11:20:26.401Z,21.24
2023-05-14T11:21:26.502Z,20.82
2023-05-14T11:22:26.231Z,20.98
2023-05-14T11:23:26.678Z,21.37
2023-05-14T11:24:26.276Z,21.61
2023-05-14T11:25:26.318Z,21.48
2023-05-14T11:26:26.326Z,21.76
2023-05-14T11:27:26.572Z,21.83
2023-05-14T11:28:26.570Z,21.81
2023-05-14T11:29:26.618Z,22.24
2023-05-14T11:30:26.715Z,22.67
2023-05-14T11:31:26.408Z,22.14
2023-05-14T11:32:26.813Z,21.75
2023-05-14T11:33:27.465Z,21.84
2023-05-14T11:34:26.377Z,22.05
2023-05-14T11:35:26.968Z,22.23
2023-05-14T11:36:26.428Z,22.5
2023-05-14T11:37:26.404Z,22.35
2023-05-14T11:38:26.444Z,22.62
2023-05-14T11:39:26.498Z,22.49
2023-05-14T11:40:26.762Z,22.57
2023-05-14T11:41:26.520Z,22.7
2023-05-14T11:42:26.672Z,22.27
2023-05-14T11:43:26.502Z,21.99
2023-05-14T11:44:26.557Z,21.96
2023-05-14T11:45:27.664Z,22.46
2023-05-14T11:46:26.612Z,22.54
2023-05-14T11:47:26.626Z,22.52
2023-05-14T11:48:26.606Z,22.29
2023-05-14T11:49:27.254Z,23.01
2023-05-14T11:50:26.844Z,22.46
2023-05-14T11:51:26.935Z,22.59
2023-05-14T11:52:26.695Z,22.31
2023-05-14T11:53:27.358Z,22.51
2023-05-14T11:54:29.686Z,23.15
2023-05-14T11:55:26.705Z,22.88
2023-05-14T11:56:26.888Z,23.08
2023-05-14T11:57:26.724Z,23.34
2023-05-14T11:58:26.748Z,22.85
2023-05-14T11:59:31.034Z,22.9
2023-05-14T12:00:27.508Z,22.82
2023-05-14T12:01:28.104Z,22.94
2023-05-14T12:02:27.930Z,23.12
2023-05-14T12:03:27.956Z,23.95
2023-05-14T12:04:28.655Z,23.7
2023-05-14T12:05:27.893Z,23.63
2023-05-14T12:06:31.902Z,22.84
2023-05-14T12:07:29.044Z,22.73
2023-05-14T12:08:29.817Z,22.55
2023-05-14T12:09:28.431Z,22.73
2023-05-14T12:10:28.422Z,23.36
2023-05-14T12:11:31.802Z,23.31
2023-05-14T12:12:34.134Z,24.05
2023-05-14T12:13:31.165Z,24.45
2023-05-14T12:14:30.370Z,23.37
2023-05-14T12:15:30.984Z,22.84
2023-05-14T12:16:31.068Z,23.38
2023-05-14T12:17:32.710Z,22.44
2023-05-14T12:18:31.518Z,23.12
2023-05-14T12:19:30.672Z,23.13
2023-05-14T12:20:30.513Z,23.35
2023-05-14T12:21:30.506Z,23.4
2023-05-14T12:22:30.571Z,23.03
2023-05-14T12:23:31.286Z,23.25
2023-05-14T12:24:30.761Z,23.04
2023-05-14T12:25:30.729Z,23.28
2023-05-14T12:26:33.532Z,23.37
2023-05-14T12:27:31.148Z,23.02
2023-05-14T12:28:31.076Z,22.33
2023-05-14T12:29:30.637Z,22.03
2023-05-14T12:30:37.119Z,22.09
2023-05-14T12:31:34.804Z,21.91
2023-05-14T12:32:38.336Z,21.52
2023-05-14T12:33:35.481Z,21.36
2023-05-14T12:34:37.175Z,21.64
2023-05-14T12:35:34.615Z,22.44
2023-05-14T12:36:34.625Z,22.86
2023-05-14T12:37:34.622Z,23.02
2023-05-14T12:38:35.017Z,23.02
2023-05-14T12:39:34.831Z,22.97
2023-05-14T12:40:34.659Z,23.13
2023-05-14T12:41:35.056Z,22.53
2023-05-14T12:42:34.862Z,22.34
2023-05-14T12:43:34.690Z,22.22
2023-05-14T12:44:34.721Z,21.95
2023-05-14T12:45:34.747Z,21.71
2023-05-14T12:46:34.853Z,21.61
2023-05-14T12:47:35.230Z,21.93
2023-05-14T12:48:34.786Z,22.35
2023-05-14T12:49:34.818Z,22.13
2023-05-14T12:50:34.811Z,21.85
2023-05-14T12:51:34.988Z,21.75
2023-05-14T12:52:39.403Z,21.96
2023-05-14T12:53:36.230Z,22.27
2023-05-14T12:54:36.246Z,22.26
2023-05-14T12:55:36.296Z,22.15
2023-05-14T12:56:37.748Z,22.21
2023-05-14T12:57:36.802Z,22.73
2023-05-14T12:58:36.330Z,22.79
2023-05-14T12:59:36.299Z,22
2023-05-14T13:00:36.321Z,22
2023-05-14T13:01:36.564Z,22.4
2023-05-14T13:02:42.841Z,22.93
2023-05-14T13:03:40.707Z,22.77
2023-05-14T13:04:40.160Z,23.02
2023-05-14T13:05:40.036Z,23.42
2023-05-14T13:06:40.627Z,23.48
2023-05-14T13:07:40.671Z,23.37
2023-05-14T13:08:41.482Z,23.48
2023-05-14T13:09:40.131Z,23.36
2023-05-14T13:10:40.255Z,23.38
2023-05-14T13:11:40.067Z,23.36
2023-05-14T13:12:40.141Z,23.83
2023-05-14T13:13:40.179Z,24.2
2023-05-14T13:14:40.177Z,24.54
2023-05-14T13:15:40.180Z,24.74
2023-05-14T13:16:40.201Z,22.77
2023-05-14T13:17:40.216Z,23.38
2023-05-14T13:18:40.227Z,23.15
2023-05-14T13:19:40.299Z,22.97
2023-05-14T13:20:42.990Z,22.96
2023-05-14T13:21:40.223Z,23.1
2023-05-14T13:22:40.271Z,23.58
2023-05-14T13:23:40.239Z,24.01
2023-05-14T13:24:40.321Z,23.97
2023-05-14T13:25:40.577Z,23.49
2023-05-14T13:26:40.346Z,23.4
2023-05-14T13:27:40.310Z,23.63
2023-05-14T13:28:40.396Z,23.65
2023-05-14T13:29:40.358Z,24.35